createdAt,value
2019-06-07T00:00:57.238Z,12.59
2019-06-07T00:03:29.526Z,12.65
2019-06-07T00:05:50.708Z,12.59
2019-06-07T00:08:26.961Z,12.52
2019-06-07T00:10:44.183Z,12.59
2019-06-07T00:13:12.112Z,12.66
2019-06-07T00:15:37.666Z,12.71
2019-06-07T00:18:03.623Z,12.71
2019-06-07T00:20:29.412Z,12.73
2019-06-07T00:22:55.194Z,12.73
2019-06-07T00:25:24.273Z,12.74
2019-06-07T00:27:48.778Z,12.69
2019-06-07T00:30:39.439Z,12.68
2019-06-07T00:32:44.250Z,12.57
2019-06-07T00:35:11.711Z,12.53
2019-06-07T00:37:37.852Z,12.50
2019-06-07T00:40:14.189Z,12.46
2019-06-07T00:42:32.929Z,12.42
2019-06-07T00:44:58.751Z,12.28
2019-06-07T00:47:25.814Z,12.25
2019-06-07T00:49:51.697Z,12.21
2019-06-07T00:53:10.707Z,12.21
2019-06-07T00:54:45.190Z,12.24
2019-06-07T00:57:12.490Z,12.24
2019-06-07T00:59:38.660Z,12.33
2019-06-07T01:02:05.511Z,12.33
2019-06-07T01:04:31.438Z,12.34
2019-06-07T01:06:57.243Z,12.33
2019-06-07T01:09:25.318Z,12.31
2019-06-07T01:11:50.700Z,12.33
2019-06-07T01:14:20.296Z,12.34
2019-06-07T01:16:56.634Z,12.28
2019-06-07T01:19:11.858Z,12.22
2019-06-07T01:21:37.656Z,12.24
2019-06-07T01:24:11.828Z,12.26
2019-06-07T01:26:31.219Z,12.25
2019-06-07T01:28:57.001Z,12.17
2019-06-07T01:31:25.393Z,12.13
2019-06-07T01:33:51.453Z,12.14
2019-06-07T01:36:18.274Z,12.08
2019-06-07T01:38:45.086Z,12.08
2019-06-07T01:41:10.888Z,12.04
2019-06-07T01:43:36.663Z,12.05
2019-06-07T01:46:02.691Z,12.07
2019-06-07T01:48:47.963Z,12.11
2019-06-07T01:50:56.148Z,12.11
2019-06-07T01:53:38.506Z,12.13
2019-06-07T01:56:04.297Z,12.13
2019-06-07T01:58:30.086Z,12.14
2019-06-07T02:00:55.872Z,12.18
2019-06-07T02:03:26.269Z,12.14
2019-06-07T02:05:49.337Z,12.19
2019-06-07T02:08:15.129Z,12.19
2019-06-07T02:10:40.918Z,12.16
2019-06-07T02:13:06.707Z,12.17
2019-06-07T02:15:36.707Z,12.10
2019-06-07T02:18:00.204Z,12.11
2019-06-07T02:20:27.932Z,12.12
2019-06-07T02:22:53.782Z,12.12
2019-06-07T02:25:43.852Z,12.17
2019-06-07T02:27:47.259Z,12.17
2019-06-07T02:32:41.058Z,12.18
2019-06-07T02:35:06.838Z,12.16
2019-06-07T02:37:36.528Z,12.10
2019-06-07T02:40:00.316Z,12.18
2019-06-07T02:42:30.814Z,12.21
2019-06-07T02:44:53.898Z,12.26
2019-06-07T02:47:19.707Z,12.24
2019-06-07T02:49:45.584Z,12.22
2019-06-07T02:52:11.353Z,12.15
2019-06-07T02:54:40.505Z,12.12
2019-06-07T02:57:04.837Z,12.05
2019-06-07T02:59:54.481Z,11.91
2019-06-07T03:01:58.421Z,11.78
2019-06-07T03:04:27.168Z,11.92
2019-06-07T03:06:52.589Z,12.01
2019-06-07T03:09:18.679Z,12.07
2019-06-07T03:11:44.971Z,12.04
2019-06-07T03:14:11.472Z,12.02
2019-06-07T03:16:56.968Z,12.13
2019-06-07T03:19:26.346Z,12.06
2019-06-07T03:21:52.253Z,12.15
2019-06-07T03:24:21.747Z,12.10
2019-06-07T03:27:32.319Z,12.13
2019-06-07T03:29:15.244Z,12.17
2019-06-07T03:31:47.074Z,11.90
2019-06-07T03:34:08.710Z,12.23
2019-06-07T03:36:38.727Z,12.30
2019-06-07T03:39:03.999Z,12.31
2019-06-07T03:41:38.593Z,12.24
2019-06-07T03:43:57.463Z,12.15
2019-06-07T03:46:23.265Z,12.08
2019-06-07T03:48:49.042Z,12.17
2019-06-07T03:51:24.770Z,12.20
2019-06-07T03:53:42.520Z,12.21
2019-06-07T03:56:16.372Z,12.26
2019-06-07T03:58:49.568Z,12.25
2019-06-07T04:01:09.877Z,12.30
2019-06-07T04:03:45.393Z,12.28
2019-06-07T04:06:03.349Z,12.15
2019-06-07T04:08:30.796Z,12.09
2019-06-07T04:11:00.012Z,12.09
2019-06-07T04:13:24.499Z,12.08
2019-06-07T04:15:50.315Z,12.01
2019-06-07T04:18:16.085Z,12.04
2019-06-07T04:20:41.867Z,12.03
2019-06-07T04:23:27.325Z,12.05
2019-06-07T04:25:39.353Z,12.07
2019-06-07T04:28:03.128Z,12.08
2019-06-07T04:30:44.453Z,12.10
2019-06-07T04:33:11.215Z,12.14
2019-06-07T04:35:40.037Z,12.16
2019-06-07T04:38:05.305Z,12.19
2019-06-07T04:40:32.303Z,12.28
2019-06-07T04:42:59.471Z,12.32
2019-06-07T04:45:40.263Z,12.32
2019-06-07T04:47:54.554Z,12.36
2019-06-07T04:50:20.349Z,12.40
2019-06-07T04:52:46.132Z,12.44
2019-06-07T04:55:11.920Z,12.53
2019-06-07T04:57:40.426Z,12.56
2019-06-07T05:00:33.896Z,12.63
2019-06-07T05:02:36.835Z,12.67
2019-06-07T05:05:00.962Z,12.83
2019-06-07T05:07:26.760Z,12.95
2019-06-07T05:09:52.592Z,12.95
2019-06-07T05:12:18.321Z,12.99
2019-06-07T05:14:44.391Z,13.12
2019-06-07T05:17:10.284Z,13.16
2019-06-07T05:19:38.519Z,13.21
2019-06-07T05:22:05.232Z,13.18
2019-06-07T05:24:34.827Z,13.28
2019-06-07T05:26:58.926Z,13.40
2019-06-07T05:29:24.707Z,13.47
2019-06-07T05:31:50.691Z,13.55
2019-06-07T05:34:16.463Z,13.60
2019-06-07T05:36:44.898Z,13.70
2019-06-07T05:39:09.931Z,13.63
2019-06-07T05:41:37.135Z,13.73
2019-06-07T05:44:12.758Z,13.81
2019-06-07T05:46:33.893Z,13.96
2019-06-07T05:48:59.599Z,13.96
2019-06-07T05:51:25.387Z,13.86
2019-06-07T05:53:51.161Z,13.88
2019-06-07T05:56:17.395Z,13.91
2019-06-07T05:58:44.710Z,14.02
2019-06-07T06:01:42.908Z,14.05
2019-06-07T06:03:40.273Z,14.09
2019-06-07T06:06:05.911Z,14.10
2019-06-07T06:08:31.704Z,14.21
2019-06-07T06:10:57.490Z,14.35
2019-06-07T06:13:23.271Z,14.47
2019-06-07T06:16:00.532Z,14.47
2019-06-07T06:18:16.747Z,14.40
2019-06-07T06:21:04.666Z,14.52
2019-06-07T06:23:10.501Z,14.62
2019-06-07T06:25:38.622Z,14.88
2019-06-07T06:28:11.493Z,14.87
2019-06-07T06:30:31.670Z,14.97
2019-06-07T06:32:58.670Z,14.90
2019-06-07T06:35:24.752Z,15.00
2019-06-07T06:37:53.219Z,14.92
2019-06-07T06:40:19.617Z,14.96
2019-06-07T06:42:48.574Z,15.03
2019-06-07T06:45:13.669Z,15.17
2019-06-07T06:47:40.684Z,15.30
2019-06-07T06:50:07.659Z,15.39
2019-06-07T06:52:33.442Z,15.37
2019-06-07T06:55:01.082Z,15.35
2019-06-07T06:57:27.865Z,15.46
2019-06-07T06:59:53.699Z,15.72
2019-06-07T07:02:19.471Z,15.82
2019-06-07T07:04:46.132Z,15.84
2019-06-07T07:07:13.326Z,15.89
2019-06-07T07:09:39.211Z,15.85
2019-06-07T07:12:11.969Z,15.75
2019-06-07T07:14:34.500Z,15.84
2019-06-07T07:17:00.277Z,16.45
2019-06-07T07:19:26.093Z,17.16
2019-06-07T07:21:53.540Z,17.32
2019-06-07T07:24:22.001Z,16.94
2019-06-07T07:26:50.067Z,17.44
2019-06-07T07:29:14.919Z,18.27
2019-06-07T07:31:40.669Z,18.98
2019-06-07T07:34:31.830Z,19.56
2019-06-07T07:36:39.425Z,19.50
2019-06-07T07:39:04.983Z,19.64
2019-06-07T07:41:29.513Z,19.48
2019-06-07T07:44:04.701Z,19.28
2019-06-07T07:46:29.804Z,19.72
2019-06-07T07:48:53.936Z,19.87
2019-06-07T07:51:18.438Z,20.07
2019-06-07T07:53:54.345Z,20.19
2019-06-07T07:56:11.987Z,20.19
2019-06-07T07:58:37.774Z,20.53
2019-06-07T08:01:10.299Z,20.51
2019-06-07T08:03:31.239Z,20.14
2019-06-07T08:05:58.906Z,20.47
2019-06-07T08:08:24.712Z,20.89
2019-06-07T08:10:53.690Z,20.80
2019-06-07T08:13:25.436Z,21.36
2019-06-07T08:15:48.319Z,21.61
2019-06-07T08:18:13.537Z,22.27
2019-06-07T08:20:39.321Z,21.89
2019-06-07T08:23:05.103Z,21.47
2019-06-07T08:25:30.887Z,21.57
2019-06-07T08:27:58.594Z,22.24
2019-06-07T08:32:57.562Z,22.66
2019-06-07T08:36:03.085Z,23.39
2019-06-07T08:38:21.435Z,23.53
2019-06-07T08:40:16.333Z,23.66
2019-06-07T08:42:59.818Z,22.72
2019-06-07T08:45:10.454Z,21.64
2019-06-07T08:47:36.222Z,21.56
2019-06-07T08:50:07.657Z,21.20
2019-06-07T08:52:32.091Z,20.58
2019-06-07T08:55:02.934Z,20.56
2019-06-07T08:57:25.546Z,20.56
2019-06-07T08:59:53.038Z,20.68
2019-06-07T09:02:23.682Z,21.90
2019-06-07T09:04:46.687Z,22.64
2019-06-07T09:07:19.474Z,23.10
2019-06-07T09:09:40.145Z,23.09
2019-06-07T09:12:10.712Z,23.09
2019-06-07T09:14:33.589Z,23.06
2019-06-07T09:17:04.779Z,23.39
2019-06-07T09:19:27.048Z,23.32
2019-06-07T09:21:54.614Z,23.30
2019-06-07T09:24:20.507Z,22.93
2019-06-07T09:26:46.409Z,23.09
2019-06-07T09:29:12.315Z,23.14
2019-06-07T09:31:51.781Z,23.57
2019-06-07T09:34:13.655Z,23.87
2019-06-07T09:36:33.530Z,24.13
2019-06-07T09:39:06.433Z,24.45
2019-06-07T09:41:46.765Z,24.60
2019-06-07T09:44:14.223Z,24.47
2019-06-07T09:46:26.135Z,23.90
2019-06-07T09:51:21.090Z,22.98
2019-06-07T09:53:47.643Z,23.73
2019-06-07T09:56:14.262Z,23.52
2019-06-07T09:58:51.920Z,24.02
2019-06-07T10:01:13.141Z,24.15
2019-06-07T10:03:37.572Z,23.58
2019-06-07T10:06:11.056Z,23.84
2019-06-07T10:11:00.879Z,23.52
2019-06-07T10:13:27.487Z,22.86
2019-06-07T10:15:54.065Z,22.51
2019-06-07T10:18:20.671Z,22.66
2019-06-07T10:20:47.219Z,23.66
2019-06-07T10:23:13.833Z,24.93
2019-06-07T10:25:40.382Z,24.43
2019-06-07T10:28:08.232Z,23.62
2019-06-07T10:30:34.941Z,23.19
2019-06-07T10:33:02.197Z,23.34
2019-06-07T10:35:28.948Z,23.57
2019-06-07T10:37:58.211Z,23.49
2019-06-07T10:40:24.020Z,23.57
2019-06-07T10:42:50.636Z,22.80
2019-06-07T10:45:17.181Z,23.00
2019-06-07T10:47:43.792Z,23.28
2019-06-07T10:50:12.314Z,23.07
2019-06-07T10:52:38.931Z,23.84
2019-06-07T10:55:06.561Z,24.60
2019-06-07T10:57:33.222Z,24.56
2019-06-07T10:59:59.853Z,25.20
2019-06-07T11:02:26.389Z,24.47
2019-06-07T11:04:52.999Z,23.89
2019-06-07T11:10:46.956Z,24.53
2019-06-07T11:13:12.872Z,24.76
2019-06-07T11:15:38.814Z,23.66
2019-06-07T11:18:06.224Z,23.42
2019-06-07T11:20:32.239Z,23.67
2019-06-07T11:22:58.157Z,24.91
2019-06-07T11:25:24.172Z,25.12
2019-06-07T11:27:50.097Z,24.84
2019-06-07T11:30:16.190Z,25.25
2019-06-07T11:32:42.235Z,25.24
2019-06-07T11:35:08.645Z,25.94
2019-06-07T11:37:34.585Z,25.01
2019-06-07T11:40:00.492Z,25.06
2019-06-07T11:42:26.412Z,25.00
2019-06-07T11:44:56.629Z,25.54
2019-06-07T11:47:20.172Z,25.57
2019-06-07T11:49:46.061Z,25.71
2019-06-07T11:52:11.982Z,25.66
2019-06-07T11:54:38.080Z,24.59
2019-06-07T11:57:04.001Z,24.61
2019-06-07T11:59:29.904Z,24.39
2019-06-07T12:01:55.855Z,23.82
2019-06-07T12:04:32.384Z,24.25
2019-06-07T12:06:49.612Z,24.61
2019-06-07T12:09:16.831Z,23.48
2019-06-07T12:11:42.936Z,23.82
2019-06-07T12:14:08.888Z,24.12
2019-06-07T12:16:34.760Z,23.75
2019-06-07T12:19:00.713Z,24.06
2019-06-07T12:21:26.614Z,24.45
2019-06-07T12:23:52.660Z,24.08
2019-06-07T12:26:18.731Z,24.22
2019-06-07T12:28:44.683Z,25.12
2019-06-07T12:31:10.909Z,24.75
2019-06-07T12:33:36.942Z,23.93
2019-06-07T12:36:02.953Z,24.41
2019-06-07T12:38:28.878Z,24.57
2019-06-07T12:40:57.958Z,24.48
2019-06-07T12:43:23.306Z,24.61
2019-06-07T12:45:49.297Z,24.91
2019-06-07T12:48:18.562Z,25.15
2019-06-07T12:50:44.006Z,25.24
2019-06-07T12:53:09.969Z,24.87
2019-06-07T12:55:35.888Z,24.90
2019-06-07T12:58:01.773Z,24.51
2019-06-07T13:00:27.722Z,24.18
2019-06-07T13:02:53.660Z,24.28
2019-06-07T13:05:20.014Z,24.59
2019-06-07T13:07:46.011Z,24.61
2019-06-07T13:10:13.949Z,24.85
2019-06-07T13:12:39.844Z,24.13
2019-06-07T13:15:06.383Z,23.02
2019-06-07T13:17:32.468Z,22.41
2019-06-07T13:19:58.389Z,22.50
2019-06-07T13:22:24.464Z,22.58
2019-06-07T13:24:50.427Z,23.25
2019-06-07T13:27:16.338Z,23.75
2019-06-07T13:29:42.289Z,23.96
2019-06-07T13:32:08.199Z,24.19
2019-06-07T13:34:34.085Z,24.38
2019-06-07T13:37:00.024Z,24.08
2019-06-07T13:39:27.860Z,24.29
2019-06-07T13:41:53.826Z,25.24
2019-06-07T13:44:20.947Z,24.49
2019-06-07T13:46:46.877Z,23.52
2019-06-07T13:49:12.740Z,23.14
2019-06-07T13:51:38.734Z,24.01
2019-06-07T13:54:04.594Z,24.04
2019-06-07T13:56:30.486Z,23.05
2019-06-07T13:58:56.340Z,22.40
2019-06-07T14:01:22.527Z,22.09
2019-06-07T14:03:48.531Z,21.79
2019-06-07T14:06:14.412Z,22.53
2019-06-07T14:08:40.268Z,23.48
2019-06-07T14:11:06.170Z,24.20
2019-06-07T14:13:32.030Z,23.53
2019-06-07T14:15:57.887Z,23.65
2019-06-07T14:18:24.405Z,24.22
2019-06-07T14:20:50.333Z,23.83
2019-06-07T14:23:16.222Z,22.73
2019-06-07T14:25:42.089Z,22.87
2019-06-07T14:28:11.491Z,22.78
2019-06-07T14:30:35.741Z,22.63
2019-06-07T14:33:01.690Z,23.04
2019-06-07T14:35:28.903Z,23.19
2019-06-07T14:37:54.831Z,22.81
2019-06-07T14:40:20.789Z,22.11
2019-06-07T14:42:46.672Z,22.46
2019-06-07T14:45:13.432Z,22.96
2019-06-07T14:47:39.314Z,23.49
2019-06-07T14:50:07.177Z,23.22
2019-06-07T14:52:33.723Z,23.06
2019-06-07T14:55:00.825Z,22.58
2019-06-07T14:57:26.981Z,22.51
2019-06-07T14:59:52.876Z,22.40
2019-06-07T15:02:18.840Z,22.35
2019-06-07T15:04:45.047Z,22.09
2019-06-07T15:07:13.436Z,21.92
2019-06-07T15:09:39.415Z,22.06
2019-06-07T15:12:05.257Z,21.88
2019-06-07T15:14:31.475Z,21.90
2019-06-07T15:16:57.407Z,21.95
2019-06-07T15:19:24.278Z,21.80
2019-06-07T15:21:50.355Z,21.80
2019-06-07T15:24:16.358Z,21.66
2019-06-07T15:26:42.215Z,21.39
2019-06-07T15:29:08.109Z,21.33
2019-06-07T15:31:34.597Z,21.45
2019-06-07T15:34:01.929Z,21.53
2019-06-07T15:36:28.304Z,21.51
2019-06-07T15:38:54.230Z,21.54
2019-06-07T15:41:20.100Z,21.54
2019-06-07T15:43:45.973Z,21.42
2019-06-07T15:46:11.966Z,21.32
2019-06-07T15:48:38.325Z,21.24
2019-06-07T15:51:04.309Z,21.25
2019-06-07T15:53:34.036Z,21.22
2019-06-07T15:55:57.972Z,21.21
2019-06-07T15:58:23.865Z,21.18
2019-06-07T16:00:50.221Z,21.31
2019-06-07T16:03:16.258Z,21.26
2019-06-07T16:05:43.217Z,21.23
2019-06-07T16:08:09.189Z,21.31
2019-06-07T16:10:35.083Z,21.30
2019-06-07T16:13:01.237Z,21.18
2019-06-07T16:15:27.127Z,21.08
2019-06-07T16:17:52.985Z,21.04
2019-06-07T16:20:19.078Z,21.02
2019-06-07T16:22:44.939Z,21.04
2019-06-07T16:25:11.229Z,21.12
2019-06-07T16:27:38.373Z,20.97
2019-06-07T16:30:09.773Z,21.07
2019-06-07T16:32:37.173Z,21.09
2019-06-07T16:35:04.553Z,21.00
2019-06-07T16:37:30.410Z,20.91
2019-06-07T16:39:56.301Z,20.90
2019-06-07T16:42:22.241Z,20.79
2019-06-07T16:44:48.938Z,20.79
2019-06-07T16:47:14.892Z,20.72
2019-06-07T16:49:40.893Z,20.73
2019-06-07T16:52:06.794Z,20.75
2019-06-07T16:54:35.527Z,20.68
2019-06-07T16:57:00.429Z,20.76
2019-06-07T16:59:26.314Z,20.84
2019-06-07T17:01:52.202Z,20.78
2019-06-07T17:04:18.387Z,20.70
2019-06-07T17:06:44.227Z,20.78
2019-06-07T17:09:10.085Z,20.68
2019-06-07T17:11:36.069Z,20.64
2019-06-07T17:14:02.437Z,20.53
2019-06-07T17:16:28.456Z,20.49
2019-06-07T17:18:54.400Z,20.38
2019-06-07T17:21:20.274Z,20.36
2019-06-07T17:23:47.313Z,20.46
2019-06-07T17:26:13.329Z,20.58
2019-06-07T17:28:39.671Z,20.58
2019-06-07T17:31:05.579Z,20.54
2019-06-07T17:33:31.566Z,20.78
2019-06-07T17:35:57.449Z,20.64
2019-06-07T17:38:23.306Z,20.77
2019-06-07T17:40:49.327Z,20.89
2019-06-07T17:43:15.164Z,20.87
2019-06-07T17:45:41.353Z,20.93
2019-06-07T17:48:07.318Z,20.99
2019-06-07T17:50:33.169Z,20.96
2019-06-07T17:52:59.024Z,20.93
2019-06-07T17:55:24.889Z,20.73
2019-06-07T17:57:50.925Z,20.46
2019-06-07T18:00:34.311Z,20.21
2019-06-07T18:02:46.854Z,20.26
2019-06-07T18:05:13.002Z,20.35
2019-06-07T18:07:38.996Z,20.46
2019-06-07T18:10:07.848Z,20.61
2019-06-07T18:12:33.825Z,20.51
2019-06-07T18:14:59.779Z,20.30
2019-06-07T18:17:34.088Z,20.25
2019-06-07T18:19:53.444Z,20.09
2019-06-07T18:22:19.337Z,20.04
2019-06-07T18:24:46.467Z,20.06
2019-06-07T18:27:12.394Z,19.90
2019-06-07T18:29:38.251Z,19.89
2019-06-07T18:32:04.147Z,19.85
2019-06-07T18:34:30.004Z,19.70
2019-06-07T18:36:55.889Z,19.62
2019-06-07T18:39:21.749Z,19.53
2019-06-07T18:41:48.834Z,19.46
2019-06-07T18:44:21.495Z,19.32
2019-06-07T18:46:42.714Z,19.27
2019-06-07T18:49:08.622Z,19.17
2019-06-07T18:51:34.460Z,19.06
2019-06-07T18:54:00.349Z,19.01
2019-06-07T18:56:26.204Z,18.88
2019-06-07T18:58:53.140Z,18.78
2019-06-07T19:01:19.049Z,18.73
2019-06-07T19:03:47.133Z,18.66
2019-06-07T19:06:12.927Z,18.60
2019-06-07T19:08:38.813Z,18.56
2019-06-07T19:11:04.673Z,18.52
2019-06-07T19:13:30.558Z,18.42
2019-06-07T19:15:57.467Z,18.39
2019-06-07T19:18:23.417Z,18.40
2019-06-07T19:20:50.607Z,18.31
2019-06-07T19:23:16.993Z,18.23
2019-06-07T19:25:42.865Z,18.25
2019-06-07T19:28:08.761Z,18.18
2019-06-07T19:30:34.626Z,18.10
2019-06-07T19:33:01.506Z,18.06
2019-06-07T19:35:27.432Z,17.93
2019-06-07T19:37:53.783Z,17.90
2019-06-07T19:40:20.023Z,17.90
2019-06-07T19:42:45.885Z,17.88
2019-06-07T19:45:30.702Z,17.87
2019-06-07T19:47:40.455Z,17.83
2019-06-07T19:50:06.676Z,17.89
2019-06-07T19:52:32.631Z,17.96
2019-06-07T19:55:00.149Z,17.82
2019-06-07T19:57:26.175Z,17.70
2019-06-07T19:59:53.275Z,17.59
2019-06-07T20:02:19.256Z,17.56
2019-06-07T20:04:45.138Z,17.52
2019-06-07T20:07:11.035Z,17.37
2019-06-07T20:09:36.939Z,17.28
2019-06-07T20:12:02.993Z,17.27
2019-06-07T20:14:28.903Z,17.25
2019-06-07T20:16:55.188Z,17.22
2019-06-07T20:19:21.137Z,17.29
2019-06-07T20:21:47.034Z,17.27
2019-06-07T20:24:26.293Z,17.16
2019-06-07T20:26:40.691Z,17.18
2019-06-07T20:29:14.575Z,17.11
2019-06-07T20:31:34.343Z,17.04
2019-06-07T20:34:00.594Z,16.96
2019-06-07T20:36:26.485Z,16.98
2019-06-07T20:38:52.347Z,16.88
2019-06-07T20:41:18.234Z,16.86
2019-06-07T20:43:44.593Z,16.84
2019-06-07T20:46:10.480Z,16.94
2019-06-07T20:48:36.363Z,16.96
2019-06-07T20:51:02.806Z,17.05
2019-06-07T20:53:28.810Z,17.00
2019-06-07T20:55:54.703Z,16.97
2019-06-07T20:58:20.581Z,16.92
2019-06-07T21:00:46.441Z,16.86
2019-06-07T21:03:12.369Z,16.86
2019-06-07T21:05:38.253Z,16.88
2019-06-07T21:08:08.928Z,16.85
2019-06-07T21:10:31.989Z,16.82
2019-06-07T21:12:57.873Z,16.80
2019-06-07T21:15:23.738Z,16.72
2019-06-07T21:17:49.629Z,16.71
2019-06-07T21:20:15.486Z,16.77
2019-06-07T21:22:41.367Z,16.63
2019-06-07T21:25:09.523Z,16.64
2019-06-07T21:27:35.678Z,16.69
2019-06-07T21:30:03.409Z,16.82
2019-06-07T21:32:29.440Z,16.85
2019-06-07T21:34:55.305Z,16.91
2019-06-07T21:37:21.198Z,16.77
2019-06-07T21:39:49.925Z,16.54
2019-06-07T21:42:14.852Z,16.26
2019-06-07T21:44:40.828Z,16.19
2019-06-07T21:47:06.722Z,16.18
2019-06-07T21:49:32.608Z,16.14
2019-06-07T21:51:58.978Z,16.05
2019-06-07T21:54:24.866Z,16.05
2019-06-07T21:56:50.851Z,16.14
2019-06-07T21:59:16.785Z,16.12
2019-06-07T22:01:42.777Z,16.14
2019-06-07T22:04:09.643Z,16.18
2019-06-07T22:06:35.636Z,16.17
2019-06-07T22:09:01.519Z,16.18
2019-06-07T22:11:27.383Z,16.05
2019-06-07T22:13:53.279Z,16.09
2019-06-07T22:16:28.563Z,16.09
2019-06-07T22:18:47.007Z,16.10
2019-06-07T22:21:12.978Z,16.18
2019-06-07T22:23:38.866Z,16.23
2019-06-07T22:26:04.903Z,16.19
2019-06-07T22:28:30.831Z,16.19
2019-06-07T22:30:56.689Z,16.20
2019-06-07T22:33:22.581Z,16.28
2019-06-07T22:35:48.441Z,16.30
2019-06-07T22:38:14.373Z,16.22
2019-06-07T22:40:40.299Z,16.28
2019-06-07T22:43:07.512Z,16.19
2019-06-07T22:45:33.485Z,16.16
2019-06-07T22:47:59.348Z,16.16
2019-06-07T22:50:25.395Z,16.17
2019-06-07T22:52:51.214Z,16.18
2019-06-07T22:55:18.197Z,16.19
2019-06-07T22:57:57.662Z,16.17
2019-06-07T23:00:24.536Z,16.16
2019-06-07T23:02:50.532Z,16.16
2019-06-07T23:05:16.828Z,16.18
2019-06-07T23:07:42.790Z,16.15
2019-06-07T23:10:09.061Z,16.02
2019-06-07T23:12:34.947Z,16.12
2019-06-07T23:15:00.840Z,16.18
2019-06-07T23:17:26.697Z,16.14
2019-06-07T23:19:52.582Z,16.12
2019-06-07T23:22:18.452Z,16.24
2019-06-07T23:24:44.348Z,16.27
2019-06-07T23:27:11.099Z,16.19
2019-06-07T23:29:38.017Z,16.11
2019-06-07T23:32:03.880Z,16.15
2019-06-07T23:34:29.847Z,16.15
2019-06-07T23:36:55.737Z,16.17
2019-06-07T23:39:22.499Z,16.18
2019-06-07T23:41:48.513Z,16.17
2019-06-07T23:44:15.341Z,16.21
2019-06-07T23:46:41.285Z,16.26
2019-06-07T23:49:07.158Z,16.34
2019-06-07T23:51:33.052Z,16.32
2019-06-07T23:53:58.922Z,16.29
2019-06-07T23:56:24.915Z,16.23
2019-06-07T23:58:50.848Z,16.19
